Time;durP1;ratioP1;P1;durP2;ratioP2;P2;SDS_P1;SDS_P2;PMS_P1;PMS_P2;Temp;Humidity;BMP_temperature;BMP_pressure;BME280_temperature;BME280_humidity;BME280_pressure;Samples;Min_cycle;Max_cycle;Signal;HPM_P1;HPM_P2
2023/06/16 00:01:34;;;;;;;;;;;;;;;;;;5069662;28;19959;-52
2023/06/16 00:04:03;;;;;;;;;;;;;;;;;;5070306;28;19908;-51
2023/06/16 00:06:29;;;;;;;;;;;;;;;;;;5068597;28;19921;-52
2023/06/16 00:08:55;;;;;;;;;;;;;;;;;;5071114;28;19908;-52
2023/06/16 00:11:21;;;;;;;;;;;;;;;;;;5070768;28;19982;-52
2023/06/16 00:13:47;;;;;;;;;;;;;;;;;;5069442;28;19990;-52
2023/06/16 00:16:13;;;;;;;;;;;;;;;;;;5068923;28;19947;-52
2023/06/16 00:18:43;;;;;;;;;;;;;;;;;;5069475;28;20007;-52
2023/06/16 00:21:09;;;;;;;;;;;;;;;;;;5068764;28;19923;-52
2023/06/16 00:23:35;;;;;;;;;;;;;;;;;;5056587;28;19948;-52
2023/06/16 00:26:01;;;;;;;;;;;;;;;;;;5069461;28;19916;-52
2023/06/16 00:28:27;;;;;;;;;;;;;;;;;;5069379;28;20402;-51
2023/06/16 00:30:53;;;;;;;;;;;;;;;;;;5069737;28;20438;-51
2023/06/16 00:33:19;;;;;;;;;;;;;;;;;;5069378;28;20383;-52
2023/06/16 00:35:45;;;;;;;;;;;;;;;;;;5070177;28;20380;-52
2023/06/16 00:38:11;;;;;;;;;;;;;;;;;;5069320;28;20006;-51
2023/06/16 00:40:37;;;;;;;;;;;;;;;;;;5070230;28;19951;-52
2023/06/16 00:43:03;;;;;;;;;;;;;;;;;;5069854;28;20288;-51
2023/06/16 00:45:29;;;;;;;;;;;;;;;;;;5069379;28;19947;-51
2023/06/16 00:47:55;;;;;;;;;;;;;;;;;;5068116;28;20348;-51
2023/06/16 00:50:23;;;;;;;;;;;;;;;;;;5070574;28;19927;-51
2023/06/16 00:52:49;;;;;;;;;;;;;;;;;;5070024;28;19923;-51
2023/06/16 00:55:16;;;;;;;;;;;;;;;;;;5069934;28;20343;-52
2023/06/16 00:57:42;;;;;;;;;;;;;;;;;;5068861;28;19966;-52
2023/06/16 01:00:11;;;;;;;;;;;;;;;;;;5068597;28;20367;-51
2023/06/16 01:02:37;;;;;;;;;;;;;;;;;;5068824;28;19917;-51
2023/06/16 01:05:03;;;;;;;;;;;;;;;;;;5069802;28;20025;-51
2023/06/16 01:07:29;;;;;;;;;;;;;;;;;;5068808;28;19943;-51
2023/06/16 01:09:55;;;;;;;;;;;;;;;;;;5069709;28;20014;-51
2023/06/16 01:12:21;;;;;;;;;;;;;;;;;;5069065;28;20485;-51
2023/06/16 01:14:47;;;;;;;;;;;;;;;;;;5066804;28;19963;-52
2023/06/16 01:17:13;;;;;;;;;;;;;;;;;;5068413;28;19928;-52
2023/06/16 01:19:39;;;;;;;;;;;;;;;;;;5067705;28;20385;-51
2023/06/16 01:22:06;;;;;;;;;;;;;;;;;;5068174;28;19955;-51
2023/06/16 01:24:32;;;;;;;;;;;;;;;;;;5069749;28;19919;-51
2023/06/16 01:26:58;;;;;;;;;;;;;;;;;;5067049;28;19916;-51
2023/06/16 01:29:24;;;;;;;;;;;;;;;;;;5067972;28;19951;-51
2023/06/16 01:31:50;;;;;;;;;;;;;;;;;;5066286;28;19942;-52
2023/06/16 01:34:16;;;;;;;;;;;;;;;;;;5067979;28;20020;-51
2023/06/16 01:36:42;;;;;;;;;;;;;;;;;;5065030;28;19948;-51
2023/06/16 01:39:08;;;;;;;;;;;;;;;;;;5067289;28;19954;-51
2023/06/16 01:41:34;;;;;;;;;;;;;;;;;;5068727;28;19959;-52
2023/06/16 01:44:00;;;;;;;;;;;;;;;;;;5068233;28;19909;-51
2023/06/16 01:46:26;;;;;;;;;;;;;;;;;;5067438;28;19963;-52
2023/06/16 01:48:52;;;;;;;;;;;;;;;;;;5066351;28;19948;-51
2023/06/16 01:51:18;;;;;;;;;;;;;;;;;;5068534;28;19963;-51
2023/06/16 01:53:44;;;;;;;;;;;;;;;;;;5067266;28;19972;-51
2023/06/16 01:56:10;;;;;;;;;;;;;;;;;;5057056;28;20380;-50
2023/06/16 01:58:36;;;;;;;;;;;;;;;;;;5062835;28;19944;-51
2023/06/16 02:01:04;;;;;;;;;;;;;;;;;;5067670;28;19970;-51
2023/06/16 02:03:30;;;;;;;;;;;;;;;;;;5068167;28;19916;-51
2023/06/16 02:05:56;;;;;;;;;;;;;;;;;;5056413;28;20368;-52
2023/06/16 02:08:22;;;;;;;;;;;;;;;;;;5066661;28;19913;-51
2023/06/16 02:10:48;;;;;;;;;;;;;;;;;;5065773;28;19959;-52
2023/06/16 02:13:14;;;;;;;;;;;;;;;;;;5068297;28;19948;-51
2023/06/16 02:15:40;;;;;;;;;;;;;;;;;;5067998;28;20005;-52
2023/06/16 02:18:09;;;;;;;;;;;;;;;;;;5066625;28;19923;-52
2023/06/16 02:20:35;;;;;;;;;;;;;;;;;;5068301;28;20019;-52
2023/06/16 02:23:01;;;;;;;;;;;;;;;;;;5060495;28;19917;-52
2023/06/16 02:25:27;;;;;;;;;;;;;;;;;;5068312;28;19948;-52
2023/06/16 02:27:53;;;;;;;;;;;;;;;;;;5066576;28;19955;-52
2023/06/16 02:30:19;;;;;;;;;;;;;;;;;;5066373;28;20085;-52
2023/06/16 02:32:48;;;;;;;;;;;;;;;;;;5066658;28;19912;-52
2023/06/16 02:35:14;;;;;;;;;;;;;;;;;;5067539;28;19952;-50
2023/06/16 02:37:41;;;;;;;;;;;;;;;;;;5065781;28;19974;-52
2023/06/16 02:40:07;;;;;;;;;;;;;;;;;;5067861;28;19943;-52
2023/06/16 02:42:33;;;;;;;;;;;;;;;;;;5067392;28;19917;-52
2023/06/16 02:44:59;;;;;;;;;;;;;;;;;;5064963;28;19956;-52
2023/06/16 02:47:26;;;;;;;;;;;;;;;;;;5065778;28;19979;-52
2023/06/16 02:49:52;;;;;;;;;;;;;;;;;;5067548;28;19963;-52
2023/06/16 02:52:18;;;;;;;;;;;;;;;;;;5067256;28;20402;-52
2023/06/16 02:54:44;;;;;;;;;;;;;;;;;;5067976;28;20357;-52
2023/06/16 02:57:10;;;;;;;;;;;;;;;;;;5066431;28;19916;-52
2023/06/16 02:59:36;;;;;;;;;;;;;;;;;;5066652;28;20428;-52
2023/06/16 03:02:02;;;;;;;;;;;;;;;;;;5067510;28;19978;-52
2023/06/16 03:04:28;;;;;;;;;;;;;;;;;;5068206;28;19912;-52
2023/06/16 03:06:57;;;;;;;;;;;;;;;;;;5067726;28;19982;-52
2023/06/16 03:09:23;;;;;;;;;;;;;;;;;;5068357;28;20015;-52
2023/06/16 03:11:49;;;;;;;;;;;;;;;;;;5068044;28;20360;-51
2023/06/16 03:14:15;;;;;;;;;;;;;;;;;;5067554;28;20325;-52
2023/06/16 03:16:41;;;;;;;;;;;;;;;;;;5065803;28;20433;-52
2023/06/16 03:19:07;;;;;;;;;;;;;;;;;;5067952;28;19916;-52
2023/06/16 03:21:33;;;;;;;;;;;;;;;;;;5068415;28;19923;-53
2023/06/16 03:23:59;;;;;;;;;;;;;;;;;;5067321;28;19956;-52
2023/06/16 03:26:25;;;;;;;;;;;;;;;;;;5068496;28;20201;-52
2023/06/16 03:28:51;;;;;;;;;;;;;;;;;;5064955;28;19916;-52
2023/06/16 03:31:17;;;;;;;;;;;;;;;;;;5067895;28;19974;-51
2023/06/16 03:33:43;;;;;;;;;;;;;;;;;;5054093;28;20035;-52
2023/06/16 03:36:09;;;;;;;;;;;;;;;;;;5067354;28;20007;-51
2023/06/16 03:38:35;;;;;;;;;;;;;;;;;;5066896;28;19948;-52
2023/06/16 03:41:01;;;;;;;;;;;;;;;;;;5070655;28;20077;-52
2023/06/16 03:43:27;;;;;;;;;;;;;;;;;;5070517;28;19946;-52
2023/06/16 03:45:53;;;;;;;;;;;;;;;;;;5071576;28;20291;-52
2023/06/16 03:48:19;;;;;;;;;;;;;;;;;;5069995;28;20008;-51
2023/06/16 03:50:45;;;;;;;;;;;;;;;;;;5070048;28;19951;-51
2023/06/16 03:53:11;;;;;;;;;;;;;;;;;;5071221;28;19960;-51
2023/06/16 03:55:37;;;;;;;;;;;;;;;;;;5070053;28;19960;-51
2023/06/16 03:58:03;;;;;;;;;;;;;;;;;;5069680;28;19999;-52
2023/06/16 04:00:29;;;;;;;;;;;;;;;;;;5069713;28;19923;-51
2023/06/16 04:02:55;;;;;;;;;;;;;;;;;;5068501;28;19956;-51
2023/06/16 04:05:23;;;;;;;;;;;;;;;;;;5070102;28;20611;-51
2023/06/16 04:07:51;;;;;;;;;;;;;;;;;;5070086;28;20318;-51
2023/06/16 04:10:17;;;;;;;;;;;;;;;;;;5065837;28;19928;-52
2023/06/16 04:12:43;;;;;;;;;;;;;;;;;;5068955;28;20001;-51
2023/06/16 04:15:08;;;;;;;;;;;;;;;;;;5070347;28;19960;-52
2023/06/16 04:17:34;;;;;;;;;;;;;;;;;;5069710;28;19962;-51
2023/06/16 04:20:00;;;;;;;;;;;;;;;;;;5071038;28;19974;-52
2023/06/16 04:22:26;;;;;;;;;;;;;;;;;;5070734;28;20394;-52
2023/06/16 04:24:52;;;;;;;;;;;;;;;;;;5069294;28;19991;-51
2023/06/16 04:27:22;;;;;;;;;;;;;;;;;;5069305;28;20249;-52
2023/06/16 04:29:50;;;;;;;;;;;;;;;;;;5070443;28;20061;-51
2023/06/16 04:32:16;;;;;;;;;;;;;;;;;;5070386;28;20367;-51
2023/06/16 04:34:42;;;;;;;;;;;;;;;;;;5069470;28;19962;-51
2023/06/16 04:37:12;;;;;;;;;;;;;;;;;;5069701;28;20327;-51
2023/06/16 04:39:40;;;;;;;;;;;;;;;;;;5070401;28;19912;-51
2023/06/16 04:42:08;;;;;;;;;;;;;;;;;;5066859;28;20469;-52
2023/06/16 04:44:34;;;;;;;;;;;;;;;;;;5068766;28;19967;-51
2023/06/16 04:47:00;;;;;;;;;;;;;;;;;;5069890;28;19923;-51
2023/06/16 04:49:26;;;;;;;;;;;;;;;;;;5067487;28;20411;-52
2023/06/16 04:51:52;;;;;;;;;;;;;;;;;;5070187;28;19992;-51
2023/06/16 04:54:19;;;;;;;;;;;;;;;;;;5070092;28;20022;-52
2023/06/16 04:56:45;;;;;;;;;;;;;;;;;;5068872;28;19916;-52
2023/06/16 04:59:11;;;;;;;;;;;;;;;;;;5066354;28;19928;-51
2023/06/16 05:01:37;;;;;;;;;;;;;;;;;;5064664;28;19924;-51
2023/06/16 05:04:03;;;;;;;;;;;;;;;;;;5064483;28;19951;-52
2023/06/16 05:06:29;;;;;;;;;;;;;;;;;;5057429;28;20003;-52
2023/06/16 05:08:55;;;;;;;;;;;;;;;;;;5068144;28;20427;-52
2023/06/16 05:11:21;;;;;;;;;;;;;;;;;;5067082;28;19967;-51
2023/06/16 05:13:47;;;;;;;;;;;;;;;;;;5064750;28;20013;-51
2023/06/16 05:16:13;;;;;;;;;;;;;;;;;;5069542;28;20379;-51
2023/06/16 05:18:39;;;;;;;;;;;;;;;;;;5068418;28;19974;-51
2023/06/16 05:21:05;;;;;;;;;;;;;;;;;;5070362;28;19912;-52
2023/06/16 05:23:31;;;;;;;;;;;;;;;;;;5069169;28;20442;-51
2023/06/16 05:25:57;;;;;;;;;;;;;;;;;;5063965;28;19971;-51
2023/06/16 05:28:23;;;;;;;;;;;;;;;;;;5061210;28;20467;-52
2023/06/16 05:30:49;;;;;;;;;;;;;;;;;;5064704;28;19956;-52
2023/06/16 05:33:15;;;;;;;;;;;;;;;;;;5061129;28;19963;-51
2023/06/16 05:35:41;;;;;;;;;;;;;;;;;;5065316;28;19948;-51
2023/06/16 05:38:07;;;;;;;;;;;;;;;;;;5067239;28;20404;-52
2023/06/16 05:40:33;;;;;;;;;;;;;;;;;;5066305;28;20449;-51
2023/06/16 05:42:59;;;;;;;;;;;;;;;;;;5068050;28;20462;-52
2023/06/16 05:45:25;;;;;;;;;;;;;;;;;;5069113;28;19947;-51
2023/06/16 05:47:51;;;;;;;;;;;;;;;;;;5064207;28;20050;-52
2023/06/16 05:50:17;;;;;;;;;;;;;;;;;;5064569;28;19920;-51
2023/06/16 05:52:43;;;;;;;;;;;;;;;;;;5068079;28;20002;-51
2023/06/16 05:55:10;;;;;;;;;;;;;;;;;;5068693;28;19921;-51
2023/06/16 05:57:37;;;;;;;;;;;;;;;;;;5068149;28;19912;-51
2023/06/16 06:00:03;;;;;;;;;;;;;;;;;;5067715;28;19927;-52
2023/06/16 06:02:29;;;;;;;;;;;;;;;;;;5067741;28;19916;-51
2023/06/16 06:04:55;;;;;;;;;;;;;;;;;;5067131;28;19973;-51
2023/06/16 06:07:21;;;;;;;;;;;;;;;;;;5065599;28;19912;-52
2023/06/16 06:09:47;;;;;;;;;;;;;;;;;;5063825;28;20061;-52
2023/06/16 06:12:13;;;;;;;;;;;;;;;;;;5064226;28;19963;-52
2023/06/16 06:14:39;;;;;;;;;;;;;;;;;;5068468;28;19952;-52
2023/06/16 06:17:05;;;;;;;;;;;;;;;;;;5067158;28;19912;-52
2023/06/16 06:19:31;;;;;;;;;;;;;;;;;;5067555;28;19912;-52
2023/06/16 06:21:57;;;;;;;;;;;;;;;;;;5067039;28;20407;-52
2023/06/16 06:24:22;;;;;;;;;;;;;;;;;;5068634;28;19962;-53
2023/06/16 06:26:49;;;;;;;;;;;;;;;;;;5068115;28;19951;-53
2023/06/16 06:29:15;;;;;;;;;;;;;;;;;;5061986;28;20296;-52
2023/06/16 06:31:41;;;;;;;;;;;;;;;;;;5068438;28;19948;-52
2023/06/16 06:34:07;;;;;;;;;;;;;;;;;;5068862;28;19916;-53
2023/06/16 06:36:33;;;;;;;;;;;;;;;;;;5068587;28;20088;-53
2023/06/16 06:38:59;;;;;;;;;;;;;;;;;;5068202;28;19959;-52
2023/06/16 06:41:25;;;;;;;;;;;;;;;;;;5067082;28;20040;-52
2023/06/16 06:43:51;;;;;;;;;;;;;;;;;;5066535;28;20030;-52
2023/06/16 06:46:20;;;;;;;;;;;;;;;;;;5068163;28;20371;-53
2023/06/16 06:48:46;;;;;;;;;;;;;;;;;;5067801;28;20427;-54
2023/06/16 06:51:13;;;;;;;;;;;;;;;;;;5067804;28;20003;-53
2023/06/16 06:53:39;;;;;;;;;;;;;;;;;;5065785;28;19923;-52
2023/06/16 06:56:05;;;;;;;;;;;;;;;;;;5067202;28;20371;-52
2023/06/16 06:58:31;;;;;;;;;;;;;;;;;;5056783;28;19912;-52
2023/06/16 07:00:57;;;;;;;;;;;;;;;;;;5058956;28;20008;-52
2023/06/16 07:03:23;;;;;;;;;;;;;;;;;;5055826;28;20391;-52
2023/06/16 07:05:49;;;;;;;;;;;;;;;;;;5065425;28;20403;-53
2023/06/16 07:08:15;;;;;;;;;;;;;;;;;;5059104;28;19947;-52
2023/06/16 07:10:41;;;;;;;;;;;;;;;;;;5066104;28;19916;-52
2023/06/16 07:13:07;;;;;;;;;;;;;;;;;;5059653;28;19997;-53
2023/06/16 07:15:33;;;;;;;;;;;;;;;;;;5063307;28;19969;-56
2023/06/16 07:18:00;;;;;;;;;;;;;;;;;;5065129;28;19928;-53
2023/06/16 07:20:26;;;;;;;;;;;;;;;;;;5069803;28;19916;-53
2023/06/16 07:22:52;;;;;;;;;;;;;;;;;;5067476;28;20407;-53
2023/06/16 07:25:18;;;;;;;;;;;;;;;;;;5061192;28;19916;-53
2023/06/16 07:27:44;;;;;;;;;;;;;;;;;;5061139;28;19931;-52
2023/06/16 07:30:10;;;;;;;;;;;;;;;;;;5067145;28;20337;-53
2023/06/16 07:32:39;;;;;;;;;;;;;;;;;;5063719;28;19916;-53
2023/06/16 07:35:06;;;;;;;;;;;;;;;;;;5065160;28;20342;-53
2023/06/16 07:37:32;;;;;;;;;;;;;;;;;;5065439;28;19916;-53
2023/06/16 07:39:58;;;;;;;;;;;;;;;;;;5059736;28;19912;-52
2023/06/16 07:42:24;;;;;;;;;;;;;;;;;;5060901;28;20005;-56
2023/06/16 07:44:50;;;;;;;;;;;;;;;;;;5063702;28;19913;-52
2023/06/16 07:47:16;;;;;;;;;;;;;;;;;;5059345;28;20351;-53
2023/06/16 07:49:43;;;;;;;;;;;;;;;;;;5056470;28;20383;-52
2023/06/16 07:52:11;;;;;;;;;;;;;;;;;;5060291;28;19971;-52
2023/06/16 07:54:37;;;;;;;;;;;;;;;;;;5063394;28;19920;-52
2023/06/16 07:57:03;;;;;;;;;;;;;;;;;;5062742;28;19951;-52
2023/06/16 07:59:29;;;;;;;;;;;;;;;;;;5060737;28;19916;-52
2023/06/16 08:01:55;;;;;;;;;;;;;;;;;;5067384;28;20251;-52
2023/06/16 08:04:21;;;;;;;;;;;;;;;;;;5061069;28;19948;-52
2023/06/16 08:06:47;;;;;;;;;;;;;;;;;;5060684;28;20015;-52
2023/06/16 08:09:13;;;;;;;;;;;;;;;;;;5064477;28;19994;-52
2023/06/16 08:11:39;;;;;;;;;;;;;;;;;;5070696;28;20359;-54
2023/06/16 08:14:05;;;;;;;;;;;;;;;;;;5057952;28;19967;-52
2023/06/16 08:16:31;;;;;;;;;;;;;;;;;;5060766;28;19962;-53
2023/06/16 08:18:59;;;;;;;;;;;;;;;;;;5065819;28;19920;-53
2023/06/16 08:21:26;;;;;;;;;;;;;;;;;;5064710;28;19921;-53
2023/06/16 08:23:52;;;;;;;;;;;;;;;;;;5082146;28;19908;-53
2023/06/16 08:26:18;;;;;;;;;;;;;;;;;;5064805;28;19939;-53
2023/06/16 08:28:44;;;;;;;;;;;;;;;;;;5062261;28;19958;-53
2023/06/16 08:31:10;;;;;;;;;;;;;;;;;;5064151;28;19992;-52
2023/06/16 08:33:36;;;;;;;;;;;;;;;;;;5067513;28;20326;-52
2023/06/16 08:36:02;;;;;;;;;;;;;;;;;;5057832;28;19929;-52
2023/06/16 08:38:28;;;;;;;;;;;;;;;;;;5067549;28;19992;-52
2023/06/16 08:40:54;;;;;;;;;;;;;;;;;;5064270;28;20003;-52
2023/06/16 08:43:20;;;;;;;;;;;;;;;;;;5062714;28;20373;-52
2023/06/16 08:45:46;;;;;;;;;;;;;;;;;;5060988;28;20008;-53
2023/06/16 08:48:13;;;;;;;;;;;;;;;;;;5065851;28;19954;-53
2023/06/16 08:50:39;;;;;;;;;;;;;;;;;;5067529;28;19921;-53
2023/06/16 08:53:08;;;;;;;;;;;;;;;;;;5067045;28;19951;-53
2023/06/16 08:55:35;;;;;;;;;;;;;;;;;;5065450;28;19921;-53
2023/06/16 08:58:01;;;;;;;;;;;;;;;;;;5067012;28;19920;-53
2023/06/16 09:00:27;;;;;;;;;;;;;;;;;;5067528;28;19955;-53
2023/06/16 09:02:56;;;;;;;;;;;;;;;;;;5068520;28;19956;-53
2023/06/16 09:05:22;;;;;;;;;;;;;;;;;;5065952;28;19920;-54
2023/06/16 09:07:49;;;;;;;;;;;;;;;;;;5067309;28;19913;-53
2023/06/16 09:10:16;;;;;;;;;;;;;;;;;;5067909;28;20260;-53
2023/06/16 09:12:42;;;;;;;;;;;;;;;;;;5069454;28;19916;-53
2023/06/16 09:15:11;;;;;;;;;;;;;;;;;;5067414;28;19951;-53
2023/06/16 09:17:37;;;;;;;;;;;;;;;;;;5063877;28;19916;-54
2023/06/16 09:20:06;;;;;;;;;;;;;;;;;;5068428;28;19916;-53
2023/06/16 09:22:32;;;;;;;;;;;;;;;;;;5057984;28;19915;-54
2023/06/16 09:24:58;;;;;;;;;;;;;;;;;;5069422;28;19909;-54
2023/06/16 09:27:25;;;;;;;;;;;;;;;;;;5068780;28;19974;-53
2023/06/16 09:29:51;;;;;;;;;;;;;;;;;;5069442;28;19931;-54
2023/06/16 09:32:19;;;;;;;;;;;;;;;;;;5068402;28;21109;-54
2023/06/16 09:34:45;;;;;;;;;;;;;;;;;;5069630;28;19947;-54
2023/06/16 09:37:11;;;;;;;;;;;;;;;;;;5066083;28;20287;-54
2023/06/16 09:39:37;;;;;;;;;;;;;;;;;;5068592;28;20358;-53
2023/06/16 09:42:03;;;;;;;;;;;;;;;;;;5063108;28;20026;-54
2023/06/16 09:44:29;;;;;;;;;;;;;;;;;;5066357;28;19971;-53
2023/06/16 09:46:55;;;;;;;;;;;;;;;;;;5065804;28;20040;-54
2023/06/16 09:49:21;;;;;;;;;;;;;;;;;;5067682;28;20427;-54
2023/06/16 09:51:47;;;;;;;;;;;;;;;;;;5067457;28;20295;-53
2023/06/16 09:54:13;;;;;;;;;;;;;;;;;;5068640;28;19979;-54
2023/06/16 09:56:39;;;;;;;;;;;;;;;;;;5065762;28;19912;-53
2023/06/16 09:59:05;;;;;;;;;;;;;;;;;;5064408;28;19927;-54
2023/06/16 10:01:33;;;;;;;;;;;;;;;;;;5064009;28;19942;-55
2023/06/16 10:04:00;;;;;;;;;;;;;;;;;;5064064;28;20386;-54
2023/06/16 10:06:28;;;;;;;;;;;;;;;;;;5066867;28;20309;-54
2023/06/16 10:08:54;;;;;;;;;;;;;;;;;;5065617;28;20398;-54
2023/06/16 10:11:20;;;;;;;;;;;;;;;;;;5065118;28;20374;-54
2023/06/16 10:13:46;;;;;;;;;;;;;;;;;;5061488;28;20394;-55
2023/06/16 10:16:13;;;;;;;;;;;;;;;;;;5062750;28;19920;-55
2023/06/16 10:18:39;;;;;;;;;;;;;;;;;;5067757;28;19986;-55
2023/06/16 10:21:05;;;;;;;;;;;;;;;;;;5067667;28;19948;-54
2023/06/16 10:23:31;;;;;;;;;;;;;;;;;;5066914;28;19912;-53
2023/06/16 10:25:57;;;;;;;;;;;;;;;;;;5068526;28;20302;-54
2023/06/16 10:28:23;;;;;;;;;;;;;;;;;;5067800;28;20359;-54
2023/06/16 10:30:50;;;;;;;;;;;;;;;;;;5068086;28;20376;-54
2023/06/16 10:33:17;;;;;;;;;;;;;;;;;;5068203;28;19970;-54
2023/06/16 10:35:43;;;;;;;;;;;;;;;;;;5068362;28;20348;-53
2023/06/16 10:38:09;;;;;;;;;;;;;;;;;;5068098;28;19924;-54
2023/06/16 10:40:35;;;;;;;;;;;;;;;;;;5068264;28;20600;-55
2023/06/16 10:43:02;;;;;;;;;;;;;;;;;;5067786;28;20044;-54
2023/06/16 10:45:36;;;;;;;;;;;;;;;;;;5067880;28;20228;-55
2023/06/16 10:48:04;;;;;;;;;;;;;;;;;;5069161;28;20291;-55
2023/06/16 10:50:30;;;;;;;;;;;;;;;;;;5070910;28;19942;-54
2023/06/16 10:52:56;;;;;;;;;;;;;;;;;;5065138;28;19999;-54
2023/06/16 10:55:22;;;;;;;;;;;;;;;;;;5067499;28;19983;-55
2023/06/16 10:57:49;;;;;;;;;;;;;;;;;;5069463;28;19924;-55
2023/06/16 11:00:16;;;;;;;;;;;;;;;;;;5069859;28;19955;-55
2023/06/16 11:02:42;;;;;;;;;;;;;;;;;;5070896;28;20410;-54
2023/06/16 11:05:12;;;;;;;;;;;;;;;;;;5068350;28;20292;-55
2023/06/16 11:07:39;;;;;;;;;;;;;;;;;;5071344;28;19923;-54
2023/06/16 11:10:05;;;;;;;;;;;;;;;;;;5067896;28;20765;-55
2023/06/16 11:12:31;;;;;;;;;;;;;;;;;;5065283;28;19920;-54
2023/06/16 11:14:58;;;;;;;;;;;;;;;;;;5065189;28;20407;-55
2023/06/16 11:17:24;;;;;;;;;;;;;;;;;;5069705;28;19920;-55
2023/06/16 11:19:50;;;;;;;;;;;;;;;;;;5069911;28;19924;-55
2023/06/16 11:22:16;;;;;;;;;;;;;;;;;;5062214;28;19943;-54
2023/06/16 11:24:42;;;;;;;;;;;;;;;;;;5064723;28;20694;-55
2023/06/16 11:27:08;;;;;;;;;;;;;;;;;;5068363;28;19951;-55
2023/06/16 11:29:36;;;;;;;;;;;;;;;;;;5062682;28;19927;-54
2023/06/16 11:32:02;;;;;;;;;;;;;;;;;;5069734;28;19921;-55
2023/06/16 11:34:28;;;;;;;;;;;;;;;;;;5071457;28;20340;-55
2023/06/16 11:36:56;;;;;;;;;;;;;;;;;;5069811;28;19919;-58
2023/06/16 11:39:22;;;;;;;;;;;;;;;;;;5068053;28;20261;-58
2023/06/16 11:41:49;;;;;;;;;;;;;;;;;;5071990;28;19959;-58
2023/06/16 11:44:15;;;;;;;;;;;;;;;;;;5071042;28;20290;-58
2023/06/16 11:46:41;;;;;;;;;;;;;;;;;;5067759;28;19912;-57
2023/06/16 11:49:07;;;;;;;;;;;;;;;;;;5066650;28;19919;-58
2023/06/16 11:51:33;;;;;;;;;;;;;;;;;;5069718;28;19974;-59
2023/06/16 11:54:01;;;;;;;;;;;;;;;;;;5070137;28;19967;-58
2023/06/16 11:56:27;;;;;;;;;;;;;;;;;;5066466;28;20291;-62
2023/06/16 11:58:53;;;;;;;;;;;;;;;;;;5068952;28;20380;-58
2023/06/16 12:01:20;;;;;;;;;;;;;;;;;;5068162;28;19912;-59
2023/06/16 12:03:46;;;;;;;;;;;;;;;;;;5067122;28;19969;-58
2023/06/16 12:06:12;;;;;;;;;;;;;;;;;;5057297;28;19916;-57
2023/06/16 12:08:38;;;;;;;;;;;;;;;;;;5067718;28;20010;-59
2023/06/16 12:11:05;;;;;;;;;;;;;;;;;;5066929;28;19924;-59
2023/06/16 12:13:35;;;;;;;;;;;;;;;;;;5069904;28;19916;-58
2023/06/16 12:16:01;;;;;;;;;;;;;;;;;;5070983;28;19916;-59
2023/06/16 12:18:27;;;;;;;;;;;;;;;;;;5068221;28;20409;-59
2023/06/16 12:20:53;;;;;;;;;;;;;;;;;;5066619;28;20030;-59
2023/06/16 12:23:19;;;;;;;;;;;;;;;;;;5074562;28;19920;-59
2023/06/16 12:25:45;;;;;;;;;;;;;;;;;;5073029;28;20027;-60
2023/06/16 12:28:14;;;;;;;;;;;;;;;;;;5070239;28;20028;-60
2023/06/16 12:30:41;;;;;;;;;;;;;;;;;;5069816;28;20366;-60
2023/06/16 12:33:07;;;;;;;;;;;;;;;;;;5059253;28;19928;-61
2023/06/16 12:35:33;;;;;;;;;;;;;;;;;;5067355;28;19920;-61
2023/06/16 12:37:59;;;;;;;;;;;;;;;;;;5070873;28;19918;-61
2023/06/16 12:40:26;;;;;;;;;;;;;;;;;;5070800;28;20360;-61
2023/06/16 12:42:52;;;;;;;;;;;;;;;;;;5062951;28;20284;-58
2023/06/16 12:45:18;;;;;;;;;;;;;;;;;;5066004;28;19916;-58
2023/06/16 12:47:44;;;;;;;;;;;;;;;;;;5064021;28;20454;-59
2023/06/16 12:50:10;;;;;;;;;;;;;;;;;;5066011;28;19963;-60
2023/06/16 12:52:36;;;;;;;;;;;;;;;;;;5067883;28;19952;-60
2023/06/16 12:55:03;;;;;;;;;;;;;;;;;;5066129;28;20384;-65
2023/06/16 12:57:29;;;;;;;;;;;;;;;;;;5068153;28;20027;-61
2023/06/16 12:59:56;;;;;;;;;;;;;;;;;;5068466;28;20006;-61
2023/06/16 13:02:22;;;;;;;;;;;;;;;;;;5069406;28;20007;-61
2023/06/16 13:04:48;;;;;;;;;;;;;;;;;;5070518;28;19915;-61
2023/06/16 13:07:14;;;;;;;;;;;;;;;;;;5071045;28;19950;-60
2023/06/16 13:09:41;;;;;;;;;;;;;;;;;;5069851;28;19913;-61
2023/06/16 13:12:07;;;;;;;;;;;;;;;;;;5069422;28;20247;-61
2023/06/16 13:14:34;;;;;;;;;;;;;;;;;;5069354;28;19915;-61
2023/06/16 13:17:00;;;;;;;;;;;;;;;;;;5068790;28;20019;-61
2023/06/16 13:19:26;;;;;;;;;;;;;;;;;;5069300;28;19923;-61
2023/06/16 13:21:52;;;;;;;;;;;;;;;;;;5071133;28;20359;-62
2023/06/16 13:24:18;;;;;;;;;;;;;;;;;;5067091;28;20288;-61
2023/06/16 13:26:44;;;;;;;;;;;;;;;;;;5070870;28;19971;-60
2023/06/16 13:29:10;;;;;;;;;;;;;;;;;;5069875;28;19919;-61
2023/06/16 13:31:37;;;;;;;;;;;;;;;;;;5069123;28;19924;-59
2023/06/16 13:34:03;;;;;;;;;;;;;;;;;;5069287;28;19912;-59
2023/06/16 13:36:29;;;;;;;;;;;;;;;;;;5070278;28;19917;-59
2023/06/16 13:38:55;;;;;;;;;;;;;;;;;;5067810;28;19972;-59
2023/06/16 13:41:21;;;;;;;;;;;;;;;;;;5070271;28;20379;-59
2023/06/16 13:43:47;;;;;;;;;;;;;;;;;;5067611;28;19912;-59
2023/06/16 13:46:16;;;;;;;;;;;;;;;;;;5067544;28;19940;-59
2023/06/16 13:48:42;;;;;;;;;;;;;;;;;;5069890;28;20275;-60
2023/06/16 13:51:08;;;;;;;;;;;;;;;;;;5069799;28;19927;-59
2023/06/16 13:53:34;;;;;;;;;;;;;;;;;;5068982;28;19956;-58
2023/06/16 13:56:00;;;;;;;;;;;;;;;;;;5070181;28;19923;-59
2023/06/16 13:58:26;;;;;;;;;;;;;;;;;;5068919;28;20351;-59
2023/06/16 14:00:53;;;;;;;;;;;;;;;;;;5069567;28;19947;-59
2023/06/16 14:03:19;;;;;;;;;;;;;;;;;;5068214;28;20708;-59
2023/06/16 14:05:45;;;;;;;;;;;;;;;;;;5068629;28;19916;-59
2023/06/16 14:08:11;;;;;;;;;;;;;;;;;;5069698;28;19946;-59
2023/06/16 14:10:37;;;;;;;;;;;;;;;;;;5068810;28;19960;-59
2023/06/16 14:13:03;;;;;;;;;;;;;;;;;;5069133;28;20391;-59
2023/06/16 14:15:31;;;;;;;;;;;;;;;;;;5065694;28;19956;-59
2023/06/16 14:17:56;;;;;;;;;;;;;;;;;;5067847;28;19912;-60
2023/06/16 14:20:23;;;;;;;;;;;;;;;;;;5069362;28;19909;-58
2023/06/16 14:22:49;;;;;;;;;;;;;;;;;;5068916;28;19917;-59
2023/06/16 14:25:14;;;;;;;;;;;;;;;;;;5067753;28;19952;-58
2023/06/16 14:27:41;;;;;;;;;;;;;;;;;;5068108;28;20387;-59
2023/06/16 14:30:07;;;;;;;;;;;;;;;;;;5068396;28;19935;-58
2023/06/16 14:32:33;;;;;;;;;;;;;;;;;;5068975;28;19916;-59
2023/06/16 14:34:59;;;;;;;;;;;;;;;;;;5069668;28;19919;-59
2023/06/16 14:37:25;;;;;;;;;;;;;;;;;;5068713;28;20363;-59
2023/06/16 14:39:51;;;;;;;;;;;;;;;;;;5068459;28;20291;-59
2023/06/16 14:42:17;;;;;;;;;;;;;;;;;;5069711;28;19909;-58
2023/06/16 14:44:43;;;;;;;;;;;;;;;;;;5067710;28;19913;-59
2023/06/16 14:47:11;;;;;;;;;;;;;;;;;;5068354;28;19962;-58
2023/06/16 14:49:37;;;;;;;;;;;;;;;;;;5069200;28;19912;-58
2023/06/16 14:52:03;;;;;;;;;;;;;;;;;;5068369;28;19921;-58
2023/06/16 14:54:29;;;;;;;;;;;;;;;;;;5066501;28;19931;-58
2023/06/16 14:56:55;;;;;;;;;;;;;;;;;;5068820;28;19969;-58
2023/06/16 14:59:21;;;;;;;;;;;;;;;;;;5066541;28;19983;-58
2023/06/16 15:01:47;;;;;;;;;;;;;;;;;;5069202;28;19912;-58
2023/06/16 15:04:13;;;;;;;;;;;;;;;;;;5068944;28;19943;-58
2023/06/16 15:06:39;;;;;;;;;;;;;;;;;;5067857;28;19919;-58
2023/06/16 15:09:05;;;;;;;;;;;;;;;;;;5068752;28;19914;-59
2023/06/16 15:11:32;;;;;;;;;;;;;;;;;;5062745;28;19920;-59
2023/06/16 15:13:58;;;;;;;;;;;;;;;;;;5068119;28;20003;-58
2023/06/16 15:16:24;;;;;;;;;;;;;;;;;;5067316;28;19913;-58
2023/06/16 15:18:50;;;;;;;;;;;;;;;;;;5069133;28;20292;-59
2023/06/16 15:21:16;;;;;;;;;;;;;;;;;;5068100;28;19942;-59
2023/06/16 15:23:42;;;;;;;;;;;;;;;;;;5068150;28;20004;-56
2023/06/16 15:26:08;;;;;;;;;;;;;;;;;;5069944;28;19998;-58
2023/06/16 15:28:34;;;;;;;;;;;;;;;;;;5068426;28;20376;-58
2023/06/16 15:31:00;;;;;;;;;;;;;;;;;;5067330;28;19968;-58
2023/06/16 15:33:26;;;;;;;;;;;;;;;;;;5068534;28;20287;-57
2023/06/16 15:35:52;;;;;;;;;;;;;;;;;;5070854;28;19962;-58
2023/06/16 15:38:18;;;;;;;;;;;;;;;;;;5071305;28;19916;-58
2023/06/16 15:40:44;;;;;;;;;;;;;;;;;;5070883;28;19974;-58
2023/06/16 15:43:10;;;;;;;;;;;;;;;;;;5071978;28;19958;-57
2023/06/16 15:45:37;;;;;;;;;;;;;;;;;;5071892;28;19912;-58
2023/06/16 15:48:03;;;;;;;;;;;;;;;;;;5072152;28;19916;-58
2023/06/16 15:50:29;;;;;;;;;;;;;;;;;;5070369;28;19966;-58
2023/06/16 15:52:55;;;;;;;;;;;;;;;;;;5071144;28;19912;-58
2023/06/16 15:55:21;;;;;;;;;;;;;;;;;;5071126;28;19948;-58
2023/06/16 15:57:47;;;;;;;;;;;;;;;;;;5071623;28;20407;-57
2023/06/16 16:00:13;;;;;;;;;;;;;;;;;;5071815;28;19958;-58
2023/06/16 16:02:40;;;;;;;;;;;;;;;;;;5070553;28;19916;-58
2023/06/16 16:05:06;;;;;;;;;;;;;;;;;;5071155;28;19948;-59
2023/06/16 16:07:32;;;;;;;;;;;;;;;;;;5070922;28;20405;-58
2023/06/16 16:09:58;;;;;;;;;;;;;;;;;;5070189;28;19952;-58
2023/06/16 16:12:24;;;;;;;;;;;;;;;;;;5070445;28;19916;-57
2023/06/16 16:14:50;;;;;;;;;;;;;;;;;;5070260;28;20336;-58
2023/06/16 16:17:17;;;;;;;;;;;;;;;;;;5062113;28;19924;-58
2023/06/16 16:19:43;;;;;;;;;;;;;;;;;;5066322;28;19916;-58
2023/06/16 16:22:09;;;;;;;;;;;;;;;;;;5069973;28;19962;-59
2023/06/16 16:24:35;;;;;;;;;;;;;;;;;;5071169;28;20178;-59
2023/06/16 16:27:01;;;;;;;;;;;;;;;;;;5069282;28;19924;-59
2023/06/16 16:29:28;;;;;;;;;;;;;;;;;;5066871;28;19963;-58
2023/06/16 16:31:54;;;;;;;;;;;;;;;;;;5069959;28;20202;-58
2023/06/16 16:34:20;;;;;;;;;;;;;;;;;;5069180;28;19917;-58
2023/06/16 16:36:46;;;;;;;;;;;;;;;;;;5069285;28;20050;-58
2023/06/16 16:39:12;;;;;;;;;;;;;;;;;;5068866;28;20043;-59